Fykan — LLDJ — position and weather

sailwx.info

Track history (hours):
 
Tides and Currents Weather Stations Pressure Air Temp Water Temp Dewpoint Dewpoint Depression Visibility Wind Speed Wind Dir Waves Ship Positions

Fykan

Last reported at 2014-Oct-01 14:29 UTC. Time now 2014-Oct-01 20:26 UTC.
Position N 66°36' E 012°59'.

Length 52 m; draft 3.3 m.

Type: Ship. MMSI: 259681000.

Date/timePositionNaut miles runAvg speedWind from/ knotsBaromVisibWave heightAir tempDewpointWater temp
2014-Oct-01 14:29N 66°36' E 012°59'5 5.4
2014-Oct-01 13:33N 66°34' E 012°47'0 0.1
2014-Oct-01 10:30N 66°34' E 012°48'5 5.1
2014-Oct-01 09:33N 66°36' E 012°59'0 0.1
2014-Oct-01 06:20N 66°36' E 012°59'4 5.5
2014-Oct-01 05:32N 66°34' E 012°50'3 0.4
2014-Sep-30 21:08N 66°35' E 012°42'5 7.2
2014-Sep-30 20:28N 66°34' E 012°54'3 0.9
2014-Sep-30 17:05N 66°36' E 012°59'4 5.8
2014-Sep-30 16:21N 66°34' E 012°50'0 0.0
2014-Sep-30 10:33N 66°34' E 012°50'4 0.8
2014-Sep-30 05:16N 66°36' E 012°59'5 5.9
2014-Sep-30 04:28N 66°34' E 012°48'1 0.1
2014-Sep-29 18:07N 66°34' E 012°47'5 1.5
2014-Sep-29 14:32N 66°36' E 012°59'5 5.3
2014-Sep-29 13:33N 66°34' E 012°47'5 1.5
2014-Sep-29 10:18N 66°35' E 012°59'1 0.3
2014-Sep-29 06:22N 66°36' E 012°59'4 5.1
2014-Sep-29 05:29N 66°34' E 012°49'2 0.2
2014-Sep-28 21:32N 66°34' E 012°45'5 5.4
2014-Sep-28 20:31N 66°35' E 012°59'5 2.3
2014-Sep-28 18:29N 66°34' E 013°10'1 0.4
2014-Sep-28 17:11N 66°35' E 013°11'5 2.6
2014-Sep-28 15:18N 66°36' E 012°59'5 6.0
2014-Sep-28 14:32N 66°34' E 012°49'1 0.0
2014-Sep-26 21:21N 66°34' E 012°47'5 5.6
2014-Sep-26 20:31N 66°34' E 012°59'4 0.9
2014-Sep-26 16:16N 66°34' E 012°49'4 0.7
2014-Sep-26 11:32N 66°36' E 012°41'7 6.3
2014-Sep-26 10:26N 66°34' E 012°59'5 1.6
2014-Sep-26 07:11N 66°38' E 013°09'4 2.3
2014-Sep-26 05:33N 66°37' E 012°59'6 5.5
2014-Sep-26 04:32N 66°34' E 012°48'5 0.4
2014-Sep-25 14:27N 66°36' E 012°59'5 5.8
2014-Sep-25 13:33N 66°34' E 012°47'3 1.2
2014-Sep-25 11:20N 66°36' E 012°41'7 6.0
2014-Sep-25 10:08N 66°35' E 012°59'1 0.3
2014-Sep-25 06:23N 66°36' E 012°59'5 5.3
2014-Sep-25 05:30N 66°34' E 012°49'0 0.0
2014-Sep-24 20:32N 66°34' E 012°49'5 0.8
2014-Sep-24 14:31N 66°36' E 012°59'5 5.2
2014-Sep-24 13:33N 66°34' E 012°47'1 0.2
2014-Sep-24 10:29N 66°34' E 012°46'5 1.3
2014-Sep-24 06:22N 66°36' E 012°59'4 5.2
2014-Sep-24 05:33N 66°34' E 012°50'1 0.0
2014-Sep-23 16:12N 66°34' E 012°49'1 0.1
2014-Sep-23 10:32N 66°34' E 012°48'9 2.2
2014-Sep-23 06:29N 66°35' E 013°10'5 3.8
2014-Sep-23 05:13N 66°36' E 012°59'5 6.0
2014-Sep-23 04:27N 66°34' E 012°49'3 0.3
2014-Sep-22 18:03N 66°36' E 012°42'7 1.9
2014-Sep-22 14:28N 66°36' E 012°59'5 5.5
2014-Sep-22 13:33N 66°34' E 012°47'1 0.3
2014-Sep-22 11:07N 66°34' E 012°49'4 4.2
2014-Sep-22 10:05N 66°35' E 012°59'2 2.7
2014-Sep-22 09:23N 66°37' E 012°59'1 0.3
2014-Sep-22 06:22N 66°36' E 012°59'5 5.1
2014-Sep-22 05:27N 66°34' E 012°49'3 0.4
2014-Sep-21 21:03N 66°35' E 012°42'12 4.2
2014-Sep-21 18:17N 66°34' E 013°11'1 1.6
2014-Sep-21 17:22N 66°32' E 013°12'7 3.2
2014-Sep-21 15:19N 66°36' E 012°59'4 5.5
2014-Sep-21 14:33N 66°34' E 012°50'  
Track history (hours):
 
Tides and Currents Weather Stations Pressure Air Temp Water Temp Dewpoint Dewpoint Depression Visibility Wind Speed Wind Dir Waves Ship Positions

Fykan

Last reported at 2014-Oct-01 14:29 UTC. Time now 2014-Oct-01 20:26 UTC.
Position N 66°36' E 012°59'.

Length 52 m; draft 3.3 m.

Type: Ship. MMSI: 259681000.

Date/timePositionNaut miles runAvg speedWind from/ knotsBaromVisibWave heightAir tempDewpointWater temp
2014-Oct-01 14:29N 66°36' E 012°59'5 5.4
2014-Oct-01 13:33N 66°34' E 012°47'0 0.1
2014-Oct-01 10:30N 66°34' E 012°48'5 5.1
2014-Oct-01 09:33N 66°36' E 012°59'0 0.1
2014-Oct-01 06:20N 66°36' E 012°59'4 5.5
2014-Oct-01 05:32N 66°34' E 012°50'3 0.4
2014-Sep-30 21:08N 66°35' E 012°42'5 7.2
2014-Sep-30 20:28N 66°34' E 012°54'3 0.9
2014-Sep-30 17:05N 66°36' E 012°59'4 5.8
2014-Sep-30 16:21N 66°34' E 012°50'0 0.0
2014-Sep-30 10:33N 66°34' E 012°50'4 0.8
2014-Sep-30 05:16N 66°36' E 012°59'5 5.9
2014-Sep-30 04:28N 66°34' E 012°48'1 0.1
2014-Sep-29 18:07N 66°34' E 012°47'5 1.5
2014-Sep-29 14:32N 66°36' E 012°59'5 5.3
2014-Sep-29 13:33N 66°34' E 012°47'5 1.5
2014-Sep-29 10:18N 66°35' E 012°59'1 0.3
2014-Sep-29 06:22N 66°36' E 012°59'4 5.1
2014-Sep-29 05:29N 66°34' E 012°49'2 0.2
2014-Sep-28 21:32N 66°34' E 012°45'5 5.4
2014-Sep-28 20:31N 66°35' E 012°59'5 2.3
2014-Sep-28 18:29N 66°34' E 013°10'1 0.4
2014-Sep-28 17:11N 66°35' E 013°11'5 2.6
2014-Sep-28 15:18N 66°36' E 012°59'5 6.0
2014-Sep-28 14:32N 66°34' E 012°49'1 0.0
2014-Sep-26 21:21N 66°34' E 012°47'5 5.6
2014-Sep-26 20:31N 66°34' E 012°59'4 0.9
2014-Sep-26 16:16N 66°34' E 012°49'4 0.7
2014-Sep-26 11:32N 66°36' E 012°41'7 6.3
2014-Sep-26 10:26N 66°34' E 012°59'5 1.6
2014-Sep-26 07:11N 66°38' E 013°09'4 2.3
2014-Sep-26 05:33N 66°37' E 012°59'6 5.5
2014-Sep-26 04:32N 66°34' E 012°48'5 0.4
2014-Sep-25 14:27N 66°36' E 012°59'5 5.8
2014-Sep-25 13:33N 66°34' E 012°47'3 1.2
2014-Sep-25 11:20N 66°36' E 012°41'7 6.0
2014-Sep-25 10:08N 66°35' E 012°59'1 0.3
2014-Sep-25 06:23N 66°36' E 012°59'5 5.3
2014-Sep-25 05:30N 66°34' E 012°49'0 0.0
2014-Sep-24 20:32N 66°34' E 012°49'5 0.8
2014-Sep-24 14:31N 66°36' E 012°59'5 5.2
2014-Sep-24 13:33N 66°34' E 012°47'1 0.2
2014-Sep-24 10:29N 66°34' E 012°46'5 1.3
2014-Sep-24 06:22N 66°36' E 012°59'4 5.2
2014-Sep-24 05:33N 66°34' E 012°50'1 0.0
2014-Sep-23 16:12N 66°34' E 012°49'1 0.1
2014-Sep-23 10:32N 66°34' E 012°48'9 2.2
2014-Sep-23 06:29N 66°35' E 013°10'5 3.8
2014-Sep-23 05:13N 66°36' E 012°59'5 6.0
2014-Sep-23 04:27N 66°34' E 012°49'3 0.3
2014-Sep-22 18:03N 66°36' E 012°42'7 1.9
2014-Sep-22 14:28N 66°36' E 012°59'5 5.5
2014-Sep-22 13:33N 66°34' E 012°47'1 0.3
2014-Sep-22 11:07N 66°34' E 012°49'4 4.2
2014-Sep-22 10:05N 66°35' E 012°59'2 2.7
2014-Sep-22 09:23N 66°37' E 012°59'1 0.3
2014-Sep-22 06:22N 66°36' E 012°59'5 5.1
2014-Sep-22 05:27N 66°34' E 012°49'3 0.4
2014-Sep-21 21:03N 66°35' E 012°42'12 4.2
2014-Sep-21 18:17N 66°34' E 013°11'1 1.6
2014-Sep-21 17:22N 66°32' E 013°12'7 3.2
2014-Sep-21 15:19N 66°36' E 012°59'4 5.5
2014-Sep-21 14:33N 66°34' E 012°50'  

Dump ship's entire track history